Time;durP1;ratioP1;P1;durP2;ratioP2;P2;SDS_P1;SDS_P2;PMS_P1;PMS_P2;Temp;Humidity;BMP_temperature;BMP_pressure;BME280_temperature;BME280_humidity;BME280_pressure;Samples;Min_cycle;Max_cycle;Signal;HPM_P1;HPM_P2
2022/03/28 00:02:23;;;;;;;32.10;19.80;;;;;;;;;;5096856;28;20199;-68
2022/03/28 00:04:51;;;;;;;33.33;19.63;;;;;;;;;;5096585;28;20206;-68
2022/03/28 00:07:18;;;;;;;30.90;18.23;;;;;;;;;;5096739;28;20290;-68
2022/03/28 00:09:45;;;;;;;33.78;19.30;;;;;;;;;;5096830;28;20204;-68
2022/03/28 00:12:12;;;;;;;28.70;19.83;;;;;;;;;;5096914;28;20199;-68
2022/03/28 00:14:39;;;;;;;30.63;18.92;;;;;;;;;;5096016;28;20216;-68
2022/03/28 00:17:08;;;;;;;32.38;19.88;;;;;;;;;;5096203;28;20200;-68
2022/03/28 00:19:35;;;;;;;38.42;21.48;;;;;;;;;;5096344;28;20197;-68
2022/03/28 00:22:02;;;;;;;34.22;18.98;;;;;;;;;;5096724;28;20287;-68
2022/03/28 00:24:30;;;;;;;33.88;20.88;;;;;;;;;;5096544;28;20205;-68
2022/03/28 00:26:57;;;;;;;34.28;20.08;;;;;;;;;;5096262;28;20196;-69
2022/03/28 00:29:24;;;;;;;33.60;20.67;;;;;;;;;;5096433;28;20570;-68
2022/03/28 00:31:52;;;;;;;32.70;20.10;;;;;;;;;;5096155;28;20195;-68
2022/03/28 00:34:21;;;;;;;33.17;20.10;;;;;;;;;;5096109;28;20311;-68
2022/03/28 00:36:50;;;;;;;32.72;20.35;;;;;;;;;;5095848;28;20192;-68
2022/03/28 00:39:19;;;;;;;34.10;20.45;;;;;;;;;;5095735;28;20203;-68
2022/03/28 00:41:46;;;;;;;38.63;21.50;;;;;;;;;;5095977;28;20193;-69
2022/03/28 00:44:13;;;;;;;32.38;19.88;;;;;;;;;;5095672;28;20658;-69
2022/03/28 00:46:41;;;;;;;34.83;19.75;;;;;;;;;;5095969;28;20262;-69
2022/03/28 00:49:08;;;;;;;39.60;21.75;;;;;;;;;;5096073;28;20642;-68
2022/03/28 00:51:37;;;;;;;40.72;22.42;;;;;;;;;;5095559;28;20200;-68
2022/03/28 00:54:05;;;;;;;38.60;19.80;;;;;;;;;;5095723;28;20630;-68
2022/03/28 00:56:32;;;;;;;30.92;20.10;;;;;;;;;;5095351;28;20192;-68
2022/03/28 00:58:59;;;;;;;39.50;23.05;;;;;;;;;;5095984;28;20219;-69
2022/03/28 01:01:26;;;;;;;39.60;22.90;;;;;;;;;;5095600;28;20238;-69
2022/03/28 01:03:54;;;;;;;36.15;21.48;;;;;;;;;;5095741;28;20196;-69
2022/03/28 01:06:21;;;;;;;46.80;24.20;;;;;;;;;;5095157;28;20207;-69
2022/03/28 01:08:50;;;;;;;40.53;23.42;;;;;;;;;;5095905;28;20195;-68
2022/03/28 01:11:18;;;;;;;39.15;21.65;;;;;;;;;;5095490;28;20197;-68
2022/03/28 01:13:46;;;;;;;38.35;21.27;;;;;;;;;;5095398;28;20229;-69
2022/03/28 01:16:13;;;;;;;43.95;23.33;;;;;;;;;;5094972;28;20226;-69
2022/03/28 01:18:47;;;;;;;36.08;21.15;;;;;;;;;;5095000;28;20674;-69
2022/03/28 01:21:16;;;;;;;38.83;21.95;;;;;;;;;;5095487;28;20192;-69
2022/03/28 01:23:44;;;;;;;34.20;21.95;;;;;;;;;;5094910;28;20658;-68
2022/03/28 01:26:13;;;;;;;38.67;21.38;;;;;;;;;;5095478;28;20548;-69
2022/03/28 01:28:40;;;;;;;41.00;23.92;;;;;;;;;;5095075;28;20193;-69
2022/03/28 01:31:08;;;;;;;39.88;24.02;;;;;;;;;;5094983;28;20197;-69
2022/03/28 01:33:36;;;;;;;44.05;22.67;;;;;;;;;;5094658;28;20196;-69
2022/03/28 01:36:03;;;;;;;43.97;22.98;;;;;;;;;;5094477;28;20213;-69
2022/03/28 01:38:32;;;;;;;41.25;23.02;;;;;;;;;;5094577;28;20679;-69
2022/03/28 01:40:59;;;;;;;42.72;24.02;;;;;;;;;;5094840;28;20191;-69
2022/03/28 01:43:26;;;;;;;38.28;24.30;;;;;;;;;;5094822;28;20294;-69
2022/03/28 01:45:53;;;;;;;52.25;23.75;;;;;;;;;;5094929;28;20227;-68
2022/03/28 01:48:21;;;;;;;42.78;22.80;;;;;;;;;;5094715;28;20286;-68
2022/03/28 01:50:48;;;;;;;36.67;23.63;;;;;;;;;;5094719;28;20223;-69
2022/03/28 01:53:15;;;;;;;44.35;23.23;;;;;;;;;;5094328;28;20196;-69
2022/03/28 01:55:44;;;;;;;45.95;25.85;;;;;;;;;;5094517;28;20314;-69
2022/03/28 01:58:11;;;;;;;43.90;23.30;;;;;;;;;;5094189;28;20198;-69
2022/03/28 02:00:38;;;;;;;43.47;25.23;;;;;;;;;;5094229;28;20198;-68
2022/03/28 02:03:05;;;;;;;42.70;22.50;;;;;;;;;;5093333;28;20658;-69
2022/03/28 02:05:32;;;;;;;47.25;25.98;;;;;;;;;;5094127;28;20677;-68
2022/03/28 02:08:00;;;;;;;42.53;24.40;;;;;;;;;;5094404;28;20200;-68
2022/03/28 02:10:27;;;;;;;53.42;25.67;;;;;;;;;;5094808;28;20222;-69
2022/03/28 02:12:55;;;;;;;43.92;24.95;;;;;;;;;;5094134;28;20203;-68
2022/03/28 02:15:23;;;;;;;44.35;25.23;;;;;;;;;;5094130;28;20308;-68
2022/03/28 02:17:50;;;;;;;43.75;24.08;;;;;;;;;;5093647;28;20206;-68
2022/03/28 02:20:19;;;;;;;37.80;24.40;;;;;;;;;;5094186;28;20229;-69
2022/03/28 02:22:47;;;;;;;53.90;24.88;;;;;;;;;;5094532;28;20200;-69
2022/03/28 02:25:15;;;;;;;46.72;22.88;;;;;;;;;;5094466;28;20254;-68
2022/03/28 02:27:42;;;;;;;44.08;25.88;;;;;;;;;;5094144;28;20594;-69
2022/03/28 02:30:12;;;;;;;51.53;24.55;;;;;;;;;;5094008;28;20295;-68
2022/03/28 02:32:39;;;;;;;47.53;23.25;;;;;;;;;;5093552;28;20262;-68
2022/03/28 02:35:08;;;;;;;47.45;24.27;;;;;;;;;;5093871;28;20331;-69
2022/03/28 02:37:35;;;;;;;48.15;23.73;;;;;;;;;;5093524;28;20193;-68
2022/03/28 02:40:02;;;;;;;48.22;24.63;;;;;;;;;;5093956;28;20194;-69
2022/03/28 02:42:29;;;;;;;40.67;22.25;;;;;;;;;;5093754;28;20209;-69
2022/03/28 02:44:57;;;;;;;45.67;24.60;;;;;;;;;;5093574;28;20202;-68
2022/03/28 02:47:26;;;;;;;43.38;23.75;;;;;;;;;;5093701;28;20652;-68
2022/03/28 02:49:53;;;;;;;45.13;23.85;;;;;;;;;;5093909;28;20196;-68
2022/03/28 02:52:22;;;;;;;50.33;25.30;;;;;;;;;;5093900;28;20295;-69
2022/03/28 02:54:49;;;;;;;46.58;25.42;;;;;;;;;;5093215;28;20196;-68
2022/03/28 02:57:16;;;;;;;41.17;23.48;;;;;;;;;;5093676;28;20204;-68
2022/03/28 02:59:43;;;;;;;44.83;23.88;;;;;;;;;;5093663;28;20556;-68
2022/03/28 03:02:11;;;;;;;48.30;23.92;;;;;;;;;;5093608;28;20196;-69
2022/03/28 03:04:39;;;;;;;48.65;23.85;;;;;;;;;;5093772;28;20206;-68
2022/03/28 03:07:06;;;;;;;47.95;25.10;;;;;;;;;;5093657;28;20201;-68
2022/03/28 03:09:34;;;;;;;43.13;24.13;;;;;;;;;;5093328;28;20722;-68
2022/03/28 03:12:01;;;;;;;44.45;24.02;;;;;;;;;;5093132;28;20197;-69
2022/03/28 03:14:28;;;;;;;43.60;23.00;;;;;;;;;;5096507;28;20224;-69
2022/03/28 03:16:55;;;;;;;45.30;25.15;;;;;;;;;;5097760;28;20223;-68
2022/03/28 03:19:23;;;;;;;47.13;24.00;;;;;;;;;;5097374;28;20624;-68
2022/03/28 03:21:51;;;;;;;46.13;25.83;;;;;;;;;;5097510;28;20196;-68
2022/03/28 03:24:18;;;;;;;46.35;24.48;;;;;;;;;;5097516;28;20206;-68
2022/03/28 03:26:45;;;;;;;50.05;25.55;;;;;;;;;;5097253;28;20199;-69
2022/03/28 03:29:13;;;;;;;48.55;25.40;;;;;;;;;;5097106;28;20557;-68
2022/03/28 03:31:40;;;;;;;49.67;26.20;;;;;;;;;;5097352;28;20201;-69
2022/03/28 03:34:07;;;;;;;45.13;25.83;;;;;;;;;;5097236;28;20191;-69
2022/03/28 03:36:34;;;;;;;48.13;24.95;;;;;;;;;;5096957;28;20266;-69
2022/03/28 03:39:03;;;;;;;48.50;23.58;;;;;;;;;;5097281;28;20200;-69
2022/03/28 03:41:31;;;;;;;49.42;27.13;;;;;;;;;;5097124;28;20200;-69
2022/03/28 03:43:58;;;;;;;45.22;24.98;;;;;;;;;;5097065;28;20195;-69
2022/03/28 03:46:25;;;;;;;52.60;26.67;;;;;;;;;;5097359;28;20219;-69
2022/03/28 03:48:52;;;;;;;43.25;23.60;;;;;;;;;;5096617;28;20197;-69
2022/03/28 03:51:19;;;;;;;42.80;24.67;;;;;;;;;;5096998;28;20222;-69
2022/03/28 03:53:47;;;;;;;42.75;25.15;;;;;;;;;;5096824;28;20210;-69
2022/03/28 03:56:15;;;;;;;39.78;22.05;;;;;;;;;;5096511;28;20217;-69
2022/03/28 03:58:42;;;;;;;48.22;24.55;;;;;;;;;;5097094;28;20207;-69
2022/03/28 04:01:10;;;;;;;49.40;25.80;;;;;;;;;;5096735;28;20218;-68
2022/03/28 04:03:37;;;;;;;47.22;26.58;;;;;;;;;;5096777;28;20195;-69
2022/03/28 04:06:05;;;;;;;56.30;26.55;;;;;;;;;;5096710;28;20199;-69
2022/03/28 04:08:32;;;;;;;51.58;27.10;;;;;;;;;;5096752;28;20554;-69
2022/03/28 04:10:59;;;;;;;60.83;27.15;;;;;;;;;;5096280;28;20195;-69
2022/03/28 04:13:28;;;;;;;45.03;26.77;;;;;;;;;;5096096;28;20206;-68
2022/03/28 04:15:55;;;;;;;56.08;26.00;;;;;;;;;;5096412;28;20229;-69
2022/03/28 04:18:25;;;;;;;53.72;27.88;;;;;;;;;;5096755;28;20196;-69
2022/03/28 04:20:52;;;;;;;50.13;26.50;;;;;;;;;;5096098;28;20195;-68
2022/03/28 04:23:20;;;;;;;50.20;27.67;;;;;;;;;;5094636;28;20195;-69
2022/03/28 04:25:47;;;;;;;56.75;26.00;;;;;;;;;;5074806;28;20203;-69
2022/03/28 04:28:15;;;;;;;57.40;28.40;;;;;;;;;;5074526;28;20286;-69
2022/03/28 04:30:43;;;;;;;47.28;28.15;;;;;;;;;;5075260;28;20211;-69
2022/03/28 04:33:11;;;;;;;51.70;27.83;;;;;;;;;;5074939;28;20200;-69
2022/03/28 04:35:39;;;;;;;44.10;28.00;;;;;;;;;;5074426;28;20309;-69
2022/03/28 04:38:06;;;;;;;47.15;26.15;;;;;;;;;;5075293;28;20231;-69
2022/03/28 04:40:34;;;;;;;50.47;27.08;;;;;;;;;;5075485;28;20647;-69
2022/03/28 04:43:01;;;;;;;49.33;27.55;;;;;;;;;;5075447;28;20568;-69
2022/03/28 04:45:30;;;;;;;47.90;26.20;;;;;;;;;;5075036;28;20576;-69
2022/03/28 04:47:58;;;;;;;50.53;27.33;;;;;;;;;;5074907;28;20291;-69
2022/03/28 04:50:26;;;;;;;46.13;24.25;;;;;;;;;;5074995;28;20207;-69
2022/03/28 04:52:53;;;;;;;44.13;25.10;;;;;;;;;;5075045;28;20236;-69
2022/03/28 04:55:20;;;;;;;50.95;27.00;;;;;;;;;;5092799;28;20294;-69
2022/03/28 04:57:47;;;;;;;54.17;27.73;;;;;;;;;;5095478;28;20211;-69
2022/03/28 05:00:16;;;;;;;55.83;27.25;;;;;;;;;;5095035;28;20193;-69
2022/03/28 05:02:43;;;;;;;53.35;27.17;;;;;;;;;;5094563;28;20285;-69
2022/03/28 05:05:12;;;;;;;52.70;25.70;;;;;;;;;;5094761;28;20195;-69
2022/03/28 05:07:39;;;;;;;44.83;25.48;;;;;;;;;;5094599;28;20290;-69
2022/03/28 05:10:07;;;;;;;39.80;24.45;;;;;;;;;;5094555;28;20286;-69
2022/03/28 05:12:35;;;;;;;44.75;24.20;;;;;;;;;;5095596;28;20199;-69
2022/03/28 05:15:02;;;;;;;48.33;25.38;;;;;;;;;;5095309;28;20195;-69
2022/03/28 05:17:30;;;;;;;50.05;27.05;;;;;;;;;;5095589;28;20255;-69
2022/03/28 05:19:58;;;;;;;56.78;26.15;;;;;;;;;;5095141;28;20203;-69
2022/03/28 05:22:27;;;;;;;42.17;23.80;;;;;;;;;;5095388;28;20194;-69
2022/03/28 05:24:55;;;;;;;56.53;25.25;;;;;;;;;;5094728;28;20198;-69
2022/03/28 05:27:22;;;;;;;50.30;27.73;;;;;;;;;;5094836;28;20202;-69
2022/03/28 05:29:49;;;;;;;52.08;26.63;;;;;;;;;;5094618;28;20233;-70
2022/03/28 05:32:17;;;;;;;43.22;23.83;;;;;;;;;;5095012;28;20202;-70
2022/03/28 05:34:44;;;;;;;47.55;24.67;;;;;;;;;;5094899;28;20285;-71
2022/03/28 05:37:12;;;;;;;46.10;24.42;;;;;;;;;;5093848;28;20225;-71
2022/03/28 05:39:41;;;;;;;39.55;22.65;;;;;;;;;;5095229;28;20555;-71
2022/03/28 05:42:08;;;;;;;62.40;25.17;;;;;;;;;;5094873;28;20258;-71
2022/03/28 05:44:35;;;;;;;41.97;22.80;;;;;;;;;;5094772;28;20201;-71
2022/03/28 05:47:03;;;;;;;45.20;21.05;;;;;;;;;;5094985;28;20231;-71
2022/03/28 05:49:30;;;;;;;40.38;22.13;;;;;;;;;;5094523;28;20194;-71
2022/03/28 05:51:58;;;;;;;49.25;21.30;;;;;;;;;;5094505;28;20195;-71
2022/03/28 05:54:25;;;;;;;40.85;19.88;;;;;;;;;;5094473;28;20201;-71
2022/03/28 05:56:53;;;;;;;43.30;20.50;;;;;;;;;;5094618;28;20373;-71
2022/03/28 05:59:21;;;;;;;37.47;19.73;;;;;;;;;;5094059;28;20201;-70
2022/03/28 06:01:48;;;;;;;37.22;17.42;;;;;;;;;;5094122;28;20194;-71
2022/03/28 06:04:15;;;;;;;34.30;20.00;;;;;;;;;;5094002;28;20285;-70
2022/03/28 06:06:42;;;;;;;29.98;15.48;;;;;;;;;;5094061;28;20212;-70
2022/03/28 06:09:10;;;;;;;37.28;18.08;;;;;;;;;;5094313;28;20203;-71
2022/03/28 06:11:37;;;;;;;31.92;16.40;;;;;;;;;;5094669;28;20665;-70
2022/03/28 06:14:06;;;;;;;37.20;17.02;;;;;;;;;;5094821;28;20199;-71
2022/03/28 06:16:33;;;;;;;24.92;15.60;;;;;;;;;;5093855;28;20218;-71
2022/03/28 06:19:00;;;;;;;44.60;17.23;;;;;;;;;;5094082;28;20195;-70
2022/03/28 06:21:30;;;;;;;32.15;15.05;;;;;;;;;;5093701;28;20251;-71
2022/03/28 06:23:58;;;;;;;22.60;14.25;;;;;;;;;;5094310;28;20272;-70
2022/03/28 06:26:26;;;;;;;27.85;14.55;;;;;;;;;;5093677;28;20287;-71
2022/03/28 06:28:53;;;;;;;38.08;15.73;;;;;;;;;;5094085;28;20252;-70
2022/03/28 06:31:22;;;;;;;27.65;14.35;;;;;;;;;;5093913;28;20613;-70
2022/03/28 06:33:51;;;;;;;27.75;14.40;;;;;;;;;;5093903;28;20199;-71
2022/03/28 06:36:18;;;;;;;36.65;16.25;;;;;;;;;;5093816;28;20218;-71
2022/03/28 06:38:46;;;;;;;28.65;15.45;;;;;;;;;;5094311;28;20601;-71
2022/03/28 06:41:14;;;;;;;34.80;17.38;;;;;;;;;;5093479;28;20196;-70
2022/03/28 06:43:41;;;;;;;28.80;15.60;;;;;;;;;;5093656;28;20649;-71
2022/03/28 06:46:09;;;;;;;30.73;14.63;;;;;;;;;;5093696;28;20241;-71
2022/03/28 06:48:37;;;;;;;30.83;15.50;;;;;;;;;;5093095;28;20287;-70
2022/03/28 06:51:06;;;;;;;31.65;15.90;;;;;;;;;;5093332;28;20208;-71
2022/03/28 06:53:33;;;;;;;21.77;13.90;;;;;;;;;;5093927;28;20249;-71
2022/03/28 06:56:01;;;;;;;34.45;14.38;;;;;;;;;;5093419;28;20189;-71
2022/03/28 06:58:28;;;;;;;29.20;15.30;;;;;;;;;;5093880;28;20199;-71
2022/03/28 07:00:56;;;;;;;32.05;15.75;;;;;;;;;;5093190;28;20268;-73
2022/03/28 07:03:23;;;;;;;31.85;14.90;;;;;;;;;;5093625;28;20195;-71
2022/03/28 07:05:51;;;;;;;24.52;14.30;;;;;;;;;;5093767;28;20196;-71
2022/03/28 07:08:19;;;;;;;26.50;16.33;;;;;;;;;;5093195;28;20198;-71
2022/03/28 07:10:46;;;;;;;30.30;15.27;;;;;;;;;;5093339;28;20562;-70
2022/03/28 07:13:13;;;;;;;29.15;15.00;;;;;;;;;;5093457;28;20192;-70
2022/03/28 07:15:40;;;;;;;24.50;14.48;;;;;;;;;;5093412;28;20206;-71
2022/03/28 07:18:08;;;;;;;24.50;14.05;;;;;;;;;;5093581;28;20226;-70
2022/03/28 07:20:36;;;;;;;30.98;14.32;;;;;;;;;;5093210;28;20277;-71
2022/03/28 07:23:05;;;;;;;22.02;12.98;;;;;;;;;;5093051;28;20273;-71
2022/03/28 07:25:32;;;;;;;31.85;14.55;;;;;;;;;;5093722;28;20202;-70
2022/03/28 07:28:00;;;;;;;28.83;14.80;;;;;;;;;;5093080;28;20200;-70
2022/03/28 07:30:28;;;;;;;29.23;14.15;;;;;;;;;;5093136;28;20202;-71
2022/03/28 07:32:56;;;;;;;21.00;13.38;;;;;;;;;;5093655;28;20196;-70
2022/03/28 07:35:23;;;;;;;28.48;12.80;;;;;;;;;;5093199;28;20286;-70
2022/03/28 07:37:51;;;;;;;31.52;14.85;;;;;;;;;;5093103;28;20211;-70
2022/03/28 07:40:20;;;;;;;33.15;14.98;;;;;;;;;;5092857;28;20679;-70
2022/03/28 07:42:53;;;;;;;23.33;14.70;;;;;;;;;;5092804;28;20193;-70
2022/03/28 07:45:20;;;;;;;27.10;13.55;;;;;;;;;;5093048;28;20623;-70
2022/03/28 07:47:48;;;;;;;28.70;14.00;;;;;;;;;;5093220;28;20195;-70
2022/03/28 07:50:15;;;;;;;24.42;12.98;;;;;;;;;;5093282;28;20220;-70
2022/03/28 07:52:42;;;;;;;34.05;15.70;;;;;;;;;;5093067;28;20196;-70
2022/03/28 07:55:11;;;;;;;24.55;12.63;;;;;;;;;;5092858;28;20196;-71
2022/03/28 07:57:40;;;;;;;33.38;15.35;;;;;;;;;;5092473;28;20307;-71
2022/03/28 08:00:10;;;;;;;24.00;14.77;;;;;;;;;;5093627;28;20601;-70
2022/03/28 08:02:38;;;;;;;30.95;13.77;;;;;;;;;;5096217;28;20288;-71
2022/03/28 08:05:05;;;;;;;29.30;15.90;;;;;;;;;;5096585;28;20702;-70
2022/03/28 08:07:33;;;;;;;29.35;13.90;;;;;;;;;;5096157;28;20238;-72
2022/03/28 08:10:00;;;;;;;29.33;13.63;;;;;;;;;;5096301;28;20653;-72
2022/03/28 08:12:28;;;;;;;25.20;13.63;;;;;;;;;;5096403;28;20223;-72
2022/03/28 08:14:56;;;;;;;26.60;13.38;;;;;;;;;;5096794;28;20198;-71
2022/03/28 08:17:24;;;;;;;38.50;14.32;;;;;;;;;;5095954;28;20219;-70
2022/03/28 08:19:51;;;;;;;23.15;14.65;;;;;;;;;;5095409;28;20201;-71
2022/03/28 08:22:18;;;;;;;19.80;13.65;;;;;;;;;;5096274;28;20701;-71
2022/03/28 08:24:45;;;;;;;26.90;15.95;;;;;;;;;;5096805;28;20193;-70
2022/03/28 08:27:13;;;;;;;26.40;14.90;;;;;;;;;;5096354;28;20209;-71
2022/03/28 08:29:40;;;;;;;20.10;14.68;;;;;;;;;;5095961;28;20204;-71
2022/03/28 08:32:09;;;;;;;20.85;15.07;;;;;;;;;;5095796;28;20196;-71
2022/03/28 08:34:36;;;;;;;24.58;14.45;;;;;;;;;;5096164;28;20194;-70
2022/03/28 08:37:04;;;;;;;20.98;14.63;;;;;;;;;;5095866;28;20310;-71
2022/03/28 08:39:31;;;;;;;28.10;16.30;;;;;;;;;;5096016;28;20639;-70
2022/03/28 08:41:58;;;;;;;21.90;14.90;;;;;;;;;;5095424;28;20246;-71
2022/03/28 08:44:27;;;;;;;20.80;14.23;;;;;;;;;;5095917;28;20290;-70
2022/03/28 08:46:55;;;;;;;22.13;14.35;;;;;;;;;;5095439;28;20267;-71
2022/03/28 08:49:23;;;;;;;25.13;14.18;;;;;;;;;;5096048;28;20280;-71
2022/03/28 08:51:51;;;;;;;20.88;14.55;;;;;;;;;;5095309;28;20200;-72
2022/03/28 08:54:19;;;;;;;25.67;14.25;;;;;;;;;;5095692;28;20203;-71
2022/03/28 08:56:46;;;;;;;18.65;14.05;;;;;;;;;;5095247;28;20208;-71
2022/03/28 08:59:13;;;;;;;22.95;14.10;;;;;;;;;;5095797;28;20204;-72
2022/03/28 09:01:41;;;;;;;22.77;13.57;;;;;;;;;;5095433;28;20200;-71
2022/03/28 09:04:09;;;;;;;24.20;14.80;;;;;;;;;;5095839;28;20210;-72
2022/03/28 09:06:38;;;;;;;24.88;15.20;;;;;;;;;;5095170;28;20262;-72
2022/03/28 09:09:16;;;;;;;22.98;16.38;;;;;;;;;;5095125;28;20651;-72
2022/03/28 09:11:44;;;;;;;19.88;15.00;;;;;;;;;;5094840;28;20203;-71
2022/03/28 09:14:15;;;;;;;20.65;14.88;;;;;;;;;;5095435;28;20312;-71
2022/03/28 09:16:42;;;;;;;24.23;14.40;;;;;;;;;;5095230;28;20200;-72
2022/03/28 09:19:14;;;;;;;23.60;15.55;;;;;;;;;;5095172;28;20293;-71
2022/03/28 09:21:51;;;;;;;20.27;16.55;;;;;;;;;;5094990;28;20229;-71
2022/03/28 09:24:18;;;;;;;23.38;15.80;;;;;;;;;;5095470;28;20253;-71
2022/03/28 09:26:45;;;;;;;21.50;13.65;;;;;;;;;;5095051;28;20192;-71
2022/03/28 09:29:13;;;;;;;22.90;15.10;;;;;;;;;;5095011;28;20205;-71
2022/03/28 09:31:42;;;;;;;25.70;16.38;;;;;;;;;;5095174;28;20208;-72
2022/03/28 09:34:11;;;;;;;22.30;14.80;;;;;;;;;;5094589;28;20283;-71
2022/03/28 09:36:39;;;;;;;18.70;14.27;;;;;;;;;;5094580;28;20206;-71
2022/03/28 09:39:09;;;;;;;21.80;14.63;;;;;;;;;;5094752;28;20196;-71
2022/03/28 09:41:37;;;;;;;24.42;16.10;;;;;;;;;;5094466;28;20650;-71
2022/03/28 09:44:04;;;;;;;24.20;16.92;;;;;;;;;;5094359;28;20203;-71
2022/03/28 09:46:32;;;;;;;25.92;17.40;;;;;;;;;;5094805;28;20309;-71
2022/03/28 09:49:00;;;;;;;20.58;15.10;;;;;;;;;;5094172;28;20232;-71
2022/03/28 09:51:27;;;;;;;22.15;16.20;;;;;;;;;;5094692;28;20203;-71
2022/03/28 09:53:55;;;;;;;22.58;15.85;;;;;;;;;;5094638;28;20196;-71
2022/03/28 09:56:23;;;;;;;31.45;16.80;;;;;;;;;;5094847;28;20203;-71
2022/03/28 09:58:56;;;;;;;24.50;16.73;;;;;;;;;;5094578;28;20224;-70
2022/03/28 10:01:24;;;;;;;26.63;16.38;;;;;;;;;;5094394;28;20220;-71
2022/03/28 10:03:52;;;;;;;28.30;15.57;;;;;;;;;;5094259;28;20279;-71
2022/03/28 10:06:20;;;;;;;25.25;16.88;;;;;;;;;;5094313;28;20206;-71
2022/03/28 10:08:47;;;;;;;25.45;17.52;;;;;;;;;;5093956;28;20256;-71
2022/03/28 10:11:16;;;;;;;32.00;16.10;;;;;;;;;;5094513;28;20196;-71
2022/03/28 10:13:44;;;;;;;24.83;17.17;;;;;;;;;;5094343;28;20196;-71
2022/03/28 10:16:12;;;;;;;24.08;17.02;;;;;;;;;;5094137;28;20194;-70
2022/03/28 10:18:40;;;;;;;23.23;16.27;;;;;;;;;;5094012;28;20227;-71
2022/03/28 10:21:09;;;;;;;19.27;14.82;;;;;;;;;;5093740;28;20284;-71
2022/03/28 10:23:38;;;;;;;24.60;15.82;;;;;;;;;;5093065;28;20197;-71
2022/03/28 10:26:09;;;;;;;22.77;16.00;;;;;;;;;;5094037;28;20284;-70
2022/03/28 10:28:36;;;;;;;24.45;16.67;;;;;;;;;;5093677;28;20188;-71
2022/03/28 10:31:14;;;;;;;26.10;17.02;;;;;;;;;;5093949;28;20195;-70
2022/03/28 10:33:48;;;;;;;22.25;16.55;;;;;;;;;;5093543;28;20188;-70
2022/03/28 10:36:23;;;;;;;24.13;15.07;;;;;;;;;;5094400;28;20623;-71
2022/03/28 10:38:51;;;;;;;24.75;15.82;;;;;;;;;;5094030;28;20479;-70
2022/03/28 10:41:18;;;;;;;24.53;16.40;;;;;;;;;;5093516;28;20222;-70
2022/03/28 10:43:46;;;;;;;22.80;15.60;;;;;;;;;;5094003;28;20439;-71
2022/03/28 10:46:16;;;;;;;26.13;15.43;;;;;;;;;;5093362;28;21060;-70
2022/03/28 10:48:44;;;;;;;25.60;16.33;;;;;;;;;;5093381;28;20207;-70
2022/03/28 10:51:12;;;;;;;27.13;15.60;;;;;;;;;;5094204;28;20287;-71
2022/03/28 10:53:43;;;;;;;21.17;15.77;;;;;;;;;;5093582;28;20201;-70
2022/03/28 10:56:15;;;;;;;24.80;17.20;;;;;;;;;;5093645;28;20643;-70
2022/03/28 10:58:43;;;;;;;22.00;15.02;;;;;;;;;;5093823;28;20470;-71
2022/03/28 11:01:26;;;;;;;22.70;16.73;;;;;;;;;;5093500;28;20280;-71
2022/03/28 11:03:54;;;;;;;21.90;16.73;;;;;;;;;;5093567;28;20428;-70
2022/03/28 11:06:22;;;;;;;27.07;17.73;;;;;;;;;;5093559;28;20442;-70
2022/03/28 11:08:59;;;;;;;27.40;16.80;;;;;;;;;;5093110;28;20929;-70
2022/03/28 11:11:27;;;;;;;26.30;16.60;;;;;;;;;;5093503;28;20189;-70
2022/03/28 11:13:59;;;;;;;36.47;17.40;;;;;;;;;;5093071;28;20431;-71
2022/03/28 11:16:41;;;;;;;31.00;17.13;;;;;;;;;;5093395;28;20909;-70
2022/03/28 11:19:27;;;;;;;24.73;17.73;;;;;;;;;;5091180;28;20479;-70
2022/03/28 11:22:01;;;;;;;26.03;18.50;;;;;;;;;;5093555;28;20424;-70
2022/03/28 11:24:48;;;;;;;26.87;18.87;;;;;;;;;;5093525;28;20420;-71
2022/03/28 11:27:16;;;;;;;25.10;16.43;;;;;;;;;;5093033;28;20450;-70
2022/03/28 11:29:44;;;;;;;26.70;17.43;;;;;;;;;;5093183;28;20435;-70
2022/03/28 11:32:12;;;;;;;25.73;17.50;;;;;;;;;;5093379;28;20440;-71
2022/03/28 11:34:41;;;;;;;27.77;16.57;;;;;;;;;;5093171;28;20443;-71
2022/03/28 11:37:08;;;;;;;29.90;18.67;;;;;;;;;;5096726;28;20483;-71
2022/03/28 11:39:50;;;;;;;30.03;17.80;;;;;;;;;;5096518;28;20472;-70
2022/03/28 11:42:20;;;;;;;23.40;16.63;;;;;;;;;;5097106;28;20450;-71
2022/03/28 11:44:47;;;;;;;26.10;18.60;;;;;;;;;;5097268;28;20454;-70
2022/03/28 11:47:17;;;;;;;27.43;17.50;;;;;;;;;;5097192;28;20547;-70
2022/03/28 11:49:54;;;;;;;27.13;15.87;;;;;;;;;;5096520;28;20454;-70
2022/03/28 11:52:21;;;;;;;28.40;17.80;;;;;;;;;;5096997;28;20455;-70
2022/03/28 11:54:49;;;;;;;29.10;18.33;;;;;;;;;;5096202;28;20505;-74
2022/03/28 12:00:12;;;;;;;29.77;16.80;;;;;;;;;;5096528;28;20408;-70
2022/03/28 12:02:47;;;;;;;27.60;16.83;;;;;;;;;;5096630;28;20449;-70
2022/03/28 12:05:24;;;;;;;29.33;17.43;;;;;;;;;;5096270;28;20431;-71
2022/03/28 12:07:52;;;;;;;28.00;16.33;;;;;;;;;;5096831;28;20436;-70
2022/03/28 12:10:19;;;;;;;32.67;17.93;;;;;;;;;;5095524;28;20614;-69
2022/03/28 12:12:46;;;;;;;31.00;17.53;;;;;;;;;;5095378;28;21062;-69
2022/03/28 12:15:14;;;;;;;27.93;16.93;;;;;;;;;;5095359;28;20446;-70
2022/03/28 12:17:41;;;;;;;29.50;17.53;;;;;;;;;;5095273;28;20458;-70
2022/03/28 12:20:11;;;;;;;32.37;18.77;;;;;;;;;;5095261;28;20800;-70
2022/03/28 12:22:46;;;;;;;28.73;18.40;;;;;;;;;;5095084;28;20490;-70
2022/03/28 12:25:23;;;;;;;31.27;15.37;;;;;;;;;;5095267;28;20496;-70
2022/03/28 12:27:53;;;;;;;32.90;19.60;;;;;;;;;;5095137;28;20999;-69
2022/03/28 12:30:20;;;;;;;28.90;17.57;;;;;;;;;;5095228;28;20425;-70
2022/03/28 12:32:47;;;;;;;27.77;17.73;;;;;;;;;;5095621;28;20448;-69
2022/03/28 12:35:17;;;;;;;30.93;18.53;;;;;;;;;;5095106;28;20778;-69
2022/03/28 12:37:45;;;;;;;32.47;20.30;;;;;;;;;;5095400;28;20531;-69
2022/03/28 12:40:13;;;;;;;35.20;20.10;;;;;;;;;;5095549;28;20440;-70
2022/03/28 12:42:44;;;;;;;33.80;18.90;;;;;;;;;;5095763;28;20450;-70
2022/03/28 12:45:13;;;;;;;35.10;18.73;;;;;;;;;;5095692;28;20475;-70
2022/03/28 12:47:41;;;;;;;39.53;20.13;;;;;;;;;;5094597;28;20449;-69
2022/03/28 12:50:10;;;;;;;30.87;18.60;;;;;;;;;;5095106;28;20519;-70
2022/03/28 12:52:39;;;;;;;32.93;20.00;;;;;;;;;;5095015;28;20800;-69
2022/03/28 12:55:08;;;;;;;38.13;20.23;;;;;;;;;;5095456;28;20448;-70
2022/03/28 12:57:37;;;;;;;30.23;17.97;;;;;;;;;;5094825;28;20455;-70
2022/03/28 13:00:05;;;;;;;35.37;19.07;;;;;;;;;;5095006;28;20475;-69
2022/03/28 13:02:33;;;;;;;30.10;18.77;;;;;;;;;;5095141;28;20441;-70
2022/03/28 13:05:01;;;;;;;36.00;19.90;;;;;;;;;;5094748;28;20547;-70
2022/03/28 13:07:29;;;;;;;25.70;17.40;;;;;;;;;;5095636;28;20449;-71
2022/03/28 13:09:57;;;;;;;27.30;17.10;;;;;;;;;;5095056;28;20452;-70
2022/03/28 13:12:35;;;;;;;29.00;17.60;;;;;;;;;;5094962;28;20489;-70
2022/03/28 13:15:02;;;;;;;26.63;16.40;;;;;;;;;;5095396;28;20516;-70
2022/03/28 13:17:29;;;;;;;38.47;19.40;;;;;;;;;;5095132;28;20449;-70
2022/03/28 13:19:58;;;;;;;26.87;17.90;;;;;;;;;;5094912;28;20472;-70
2022/03/28 13:22:28;;;;;;;28.43;17.30;;;;;;;;;;5094583;28;20436;-70
2022/03/28 13:25:07;;;;;;;29.30;18.00;;;;;;;;;;5094565;28;20444;-70
2022/03/28 13:30:24;;;;;;;28.60;16.63;;;;;;;;;;5094557;28;20550;-71
2022/03/28 13:32:51;;;;;;;26.77;17.23;;;;;;;;;;5094455;28;20464;-70
2022/03/28 13:35:19;;;;;;;33.60;18.50;;;;;;;;;;5094572;28;20434;-71
2022/03/28 13:37:54;;;;;;;28.77;18.03;;;;;;;;;;5094782;28;20534;-70
2022/03/28 13:40:21;;;;;;;27.13;16.73;;;;;;;;;;5093935;28;20514;-71
2022/03/28 13:42:50;;;;;;;32.70;16.93;;;;;;;;;;5094554;28;20448;-70
2022/03/28 13:45:18;;;;;;;33.23;17.60;;;;;;;;;;5094206;28;20501;-71
2022/03/28 13:47:45;;;;;;;33.63;18.20;;;;;;;;;;5094503;28;20934;-71
2022/03/28 13:50:13;;;;;;;30.67;17.07;;;;;;;;;;5094510;28;20792;-71
2022/03/28 13:52:40;;;;;;;23.47;16.20;;;;;;;;;;5094127;28;20445;-70
2022/03/28 13:55:08;;;;;;;31.03;16.60;;;;;;;;;;5094348;28;20441;-71
2022/03/28 13:57:36;;;;;;;29.03;16.50;;;;;;;;;;5092917;28;20450;-71
2022/03/28 14:00:05;;;;;;;32.93;18.30;;;;;;;;;;5093757;28;20490;-71
2022/03/28 14:02:32;;;;;;;30.10;16.47;;;;;;;;;;5094365;28;20481;-71
2022/03/28 14:05:02;;;;;;;29.17;17.27;;;;;;;;;;5093910;28;20467;-71
2022/03/28 14:07:29;;;;;;;28.47;17.67;;;;;;;;;;5093998;28;20938;-70
2022/03/28 14:09:56;;;;;;;30.33;17.73;;;;;;;;;;5093821;28;20446;-71
2022/03/28 14:12:24;;;;;;;25.60;15.83;;;;;;;;;;5093576;28;20472;-70
2022/03/28 14:14:52;;;;;;;25.80;16.77;;;;;;;;;;5094232;28;20499;-70
2022/03/28 14:17:20;;;;;;;30.47;16.60;;;;;;;;;;5093673;28;20457;-71
2022/03/28 14:19:48;;;;;;;31.40;16.80;;;;;;;;;;5093370;28;20483;-70
2022/03/28 14:22:15;;;;;;;23.20;15.17;;;;;;;;;;5093601;28;20447;-71
2022/03/28 14:24:42;;;;;;;25.93;15.07;;;;;;;;;;5093381;28;20938;-71
2022/03/28 14:27:10;;;;;;;26.93;16.10;;;;;;;;;;5093644;28;20455;-70
2022/03/28 14:29:37;;;;;;;27.07;16.87;;;;;;;;;;5093384;28;20441;-71